WPDL

Details ICAO WPDL (DIL)
Name Dili Presidente Nicolau Lobato Intl
Region Timor-Leste
Timezone Unknown (UTC+0.0)
Plans Departing 27
Arriving 43
Stats Elevation 25 ft / 8 m (AMSL)
Location -8.546553° 125.524721°
Runways 1
Magnetic Variation 1.467° E
Sunrise 2018-05-25 21:46:00 UTC / 2018-05-25 21:46:00 Local
Sunset 2018-05-26 09:26:42 UTC / 2018-05-26 09:26:42 Local
Advertisement - Login to hide

Runways

ID Width Length Bearing (true) Bearing (mag) Surface Threshold Offset Overrun Length
08 98 ft / 30 m 6,062 ft / 1,848 m 77.11° 75.64° Asphalt 201 ft / 61 m 100 ft / 30 m
26 98 ft / 30 m 6,062 ft / 1,848 m 257.11° 255.64° Asphalt 0 ft / 0 m 100 ft / 30 m

Map

Weather


0- 5 10 15 20 25 30 35+ Temperature / ° C

Clouds and Precipitation
Forecast for 2018-05-26 00:00 UTC. Updated 6 hours ago

Ground ~20,000 ft ~40,000 ft Winds

METAR

Not found

TAF

TAF TAF WPDL 252321Z 2600/2612 31008KT 9999 FEW045 FM260500 02009KT 9999 SCT030 FM261100 16005KT CAVOK

Frequencies

Ground 133.90 MHz COMORO GND
Tower 122.90 MHz COMORO APP/TWR
Warning: Do not use this data for real-world aviation or navigation. No guarantee of current accuracy is given.